createdAt,value
2017-10-30T00:00:36.396Z,82.24
2017-10-30T00:03:05.593Z,81.89
2017-10-30T00:05:34.915Z,81.59
2017-10-30T00:08:04.178Z,81.87
2017-10-30T00:10:33.396Z,81.74
2017-10-30T00:13:02.633Z,81.88
2017-10-30T00:15:32.835Z,81.81
2017-10-30T00:18:02.070Z,82.06
2017-10-30T00:20:31.265Z,81.91
2017-10-30T00:23:01.352Z,81.68
2017-10-30T00:25:31.319Z,82.07
2017-10-30T00:28:00.564Z,81.78
2017-10-30T00:30:30.560Z,81.95
2017-10-30T00:33:01.284Z,81.70
2017-10-30T00:35:30.488Z,81.61
2017-10-30T00:37:59.707Z,81.39
2017-10-30T00:40:29.703Z,81.36
2017-10-30T00:42:58.980Z,81.25
2017-10-30T00:45:28.149Z,81.33
2017-10-30T00:47:57.371Z,81.12
2017-10-30T00:50:26.664Z,81.27
2017-10-30T00:52:55.864Z,81.19
2017-10-30T00:55:25.161Z,81.09
2017-10-30T00:57:54.363Z,81.06
2017-10-30T01:00:23.591Z,81.00
2017-10-30T01:02:54.326Z,81.00
2017-10-30T01:05:24.303Z,81.03
2017-10-30T01:07:53.527Z,81.12
2017-10-30T01:10:22.735Z,81.57
2017-10-30T01:12:53.463Z,81.15
2017-10-30T01:15:22.738Z,81.14
2017-10-30T01:17:52.180Z,81.50
2017-10-30T01:20:21.389Z,81.68
2017-10-30T01:22:51.375Z,81.68
2017-10-30T01:25:20.592Z,81.90
2017-10-30T01:27:51.312Z,81.91
2017-10-30T01:30:20.501Z,82.10
2017-10-30T01:32:49.732Z,81.97
2017-10-30T01:35:19.724Z,82.17
2017-10-30T01:37:48.963Z,82.17
2017-10-30T01:40:18.194Z,82.42
2017-10-30T01:42:47.404Z,82.51
2017-10-30T01:45:16.620Z,82.49
2017-10-30T01:47:47.535Z,82.80
2017-10-30T01:50:16.743Z,82.61
2017-10-30T01:52:45.930Z,83.11
2017-10-30T01:55:15.197Z,82.80
2017-10-30T01:57:44.486Z,82.84
2017-10-30T02:00:13.715Z,82.94
2017-10-30T02:02:42.916Z,82.24
2017-10-30T02:05:13.048Z,82.29
2017-10-30T02:07:42.263Z,82.59
2017-10-30T02:10:11.549Z,82.25
2017-10-30T02:12:40.776Z,81.66
2017-10-30T02:15:10.751Z,81.48
2017-10-30T02:17:40.009Z,81.67
2017-10-30T02:20:09.264Z,81.52
2017-10-30T02:22:38.465Z,81.56
2017-10-30T02:25:07.679Z,81.32
2017-10-30T02:27:37.638Z,81.87
2017-10-30T02:30:06.953Z,81.73
2017-10-30T02:32:36.159Z,81.83
2017-10-30T02:35:05.451Z,81.69
2017-10-30T02:37:34.672Z,81.68
2017-10-30T02:40:05.390Z,81.70
2017-10-30T02:42:34.583Z,81.99
2017-10-30T02:45:03.796Z,81.77
2017-10-30T02:47:32.989Z,81.93
2017-10-30T02:50:02.229Z,82.03
2017-10-30T02:52:31.423Z,81.95
2017-10-30T02:55:01.408Z,81.89
2017-10-30T02:57:31.534Z,82.01
2017-10-30T03:00:00.774Z,81.76
2017-10-30T03:02:29.960Z,81.71
2017-10-30T03:04:59.255Z,81.36
2017-10-30T03:07:28.464Z,81.55
2017-10-30T03:09:57.688Z,81.53
2017-10-30T03:12:26.965Z,81.56
2017-10-30T03:14:56.220Z,81.68
2017-10-30T03:17:26.174Z,81.84
2017-10-30T03:19:55.449Z,81.82
2017-10-30T03:22:25.407Z,81.77
2017-10-30T03:24:54.611Z,82.02
2017-10-30T03:27:24.011Z,82.03
2017-10-30T03:29:53.297Z,81.76
2017-10-30T03:32:22.471Z,81.93
2017-10-30T03:34:52.455Z,81.82
2017-10-30T03:37:22.450Z,81.72
2017-10-30T03:39:51.668Z,81.78
2017-10-30T03:42:20.915Z,81.83
2017-10-30T03:44:50.122Z,81.74
2017-10-30T03:47:19.300Z,82.01
2017-10-30T03:49:48.714Z,81.69
2017-10-30T03:52:17.929Z,81.75
2017-10-30T03:54:47.144Z,81.99
2017-10-30T03:57:16.366Z,81.83
2017-10-30T03:59:46.335Z,81.80
2017-10-30T04:02:15.531Z,82.20
2017-10-30T04:04:44.934Z,82.11
2017-10-30T04:07:14.108Z,82.15
2017-10-30T04:09:43.349Z,82.36
2017-10-30T04:12:12.570Z,82.31
2017-10-30T04:14:41.759Z,82.03
2017-10-30T04:17:12.497Z,82.11
2017-10-30T04:19:41.712Z,82.08
2017-10-30T04:22:11.802Z,82.06
2017-10-30T04:24:41.115Z,82.33
2017-10-30T04:27:11.105Z,82.20
2017-10-30T04:29:40.304Z,82.49
2017-10-30T04:32:09.520Z,82.67
2017-10-30T04:34:38.776Z,82.92
2017-10-30T04:37:07.996Z,82.74
2017-10-30T04:39:37.199Z,82.51
2017-10-30T04:42:06.536Z,82.63
2017-10-30T04:44:35.760Z,82.69
2017-10-30T04:47:04.979Z,82.46
2017-10-30T04:49:34.272Z,82.44
2017-10-30T04:52:03.463Z,82.65
2017-10-30T04:54:32.677Z,83.38
2017-10-30T04:57:02.807Z,82.54
2017-10-30T04:59:32.035Z,82.54
2017-10-30T05:02:01.997Z,82.30
2017-10-30T05:04:31.221Z,82.23
2017-10-30T05:07:00.591Z,82.38
2017-10-30T05:09:29.804Z,82.21
2017-10-30T05:11:59.075Z,82.04
2017-10-30T05:14:28.312Z,81.83
2017-10-30T05:16:57.500Z,81.76
2017-10-30T05:19:26.755Z,81.66
2017-10-30T05:21:55.951Z,82.42
2017-10-30T05:24:25.322Z,81.73
2017-10-30T05:26:56.126Z,81.32
2017-10-30T05:29:25.316Z,82.01
2017-10-30T05:31:54.533Z,81.58
2017-10-30T05:34:23.805Z,81.63
2017-10-30T05:36:53.227Z,81.97
2017-10-30T05:39:22.422Z,82.20
2017-10-30T05:41:51.771Z,81.56
2017-10-30T05:44:21.732Z,81.46
2017-10-30T05:46:51.155Z,81.69
2017-10-30T05:49:20.461Z,81.59
2017-10-30T05:51:49.676Z,81.74
2017-10-30T05:54:19.636Z,81.83
2017-10-30T05:56:48.915Z,81.22
2017-10-30T05:59:18.136Z,81.39
2017-10-30T06:01:47.365Z,81.46
2017-10-30T06:04:16.585Z,80.85
2017-10-30T06:06:46.555Z,81.20
2017-10-30T06:09:16.575Z,81.04
2017-10-30T06:11:45.767Z,80.96
2017-10-30T06:14:15.004Z,80.98
2017-10-30T06:16:44.189Z,80.99
2017-10-30T06:19:13.413Z,81.13
2017-10-30T06:21:43.374Z,81.01
2017-10-30T06:24:12.591Z,81.18
2017-10-30T06:26:41.791Z,81.54
2017-10-30T06:29:11.024Z,81.11
2017-10-30T06:31:40.967Z,81.46
2017-10-30T06:34:10.195Z,81.28
2017-10-30T06:36:39.415Z,81.56
2017-10-30T06:39:09.446Z,81.92
2017-10-30T06:41:39.427Z,82.69
2017-10-30T06:44:08.639Z,81.80
2017-10-30T06:46:37.860Z,82.40
2017-10-30T06:49:07.803Z,81.78
2017-10-30T06:51:37.005Z,81.87
2017-10-30T06:54:06.219Z,81.60
2017-10-30T06:56:35.432Z,82.54
2017-10-30T06:59:04.658Z,82.06
2017-10-30T07:01:34.648Z,82.10
2017-10-30T07:04:03.874Z,82.13
2017-10-30T07:06:33.843Z,81.74
2017-10-30T07:09:03.100Z,81.99
2017-10-30T07:11:32.294Z,81.97
2017-10-30T07:14:02.271Z,82.11
2017-10-30T07:16:31.689Z,82.58
2017-10-30T07:19:00.947Z,82.28
2017-10-30T07:21:30.148Z,82.26
2017-10-30T07:23:59.417Z,82.59
2017-10-30T07:26:28.603Z,82.46
2017-10-30T07:28:57.827Z,82.76
2017-10-30T07:31:27.128Z,81.99
2017-10-30T07:33:56.356Z,82.22
2017-10-30T07:36:25.571Z,81.91
2017-10-30T07:38:54.823Z,82.32
2017-10-30T07:41:24.023Z,81.69
2017-10-30T07:43:53.240Z,81.84
2017-10-30T07:46:22.520Z,81.49
2017-10-30T07:48:51.732Z,81.76
2017-10-30T07:51:20.969Z,82.02
2017-10-30T07:53:50.262Z,81.63
2017-10-30T07:56:20.240Z,81.73
2017-10-30T07:58:49.437Z,81.12
2017-10-30T08:01:18.644Z,81.63
2017-10-30T08:03:47.841Z,80.88
2017-10-30T08:06:17.127Z,81.03
2017-10-30T08:08:46.323Z,80.95
2017-10-30T08:11:15.695Z,81.02
2017-10-30T08:13:44.906Z,81.48
2017-10-30T08:16:14.108Z,80.24
2017-10-30T08:18:43.339Z,81.25
2017-10-30T08:21:12.548Z,81.00
2017-10-30T08:23:41.754Z,80.65
2017-10-30T08:26:11.720Z,80.41
2017-10-30T08:28:40.939Z,80.53
2017-10-30T08:31:10.135Z,79.99
2017-10-30T08:33:39.597Z,79.76
2017-10-30T08:36:08.794Z,79.65
2017-10-30T08:38:38.016Z,80.78
2017-10-30T08:41:07.196Z,79.09
2017-10-30T08:43:36.417Z,78.48
2017-10-30T08:46:05.595Z,79.47
2017-10-30T08:48:34.775Z,78.13
2017-10-30T08:51:04.004Z,78.78
2017-10-30T08:53:33.259Z,78.40
2017-10-30T08:56:02.472Z,77.51
2017-10-30T08:58:31.671Z,77.02
2017-10-30T09:01:00.884Z,76.44
2017-10-30T09:03:30.073Z,77.12
2017-10-30T09:05:59.369Z,77.67
2017-10-30T09:08:28.597Z,77.30
2017-10-30T09:10:57.809Z,77.37
2017-10-30T09:13:27.047Z,77.03
2017-10-30T09:15:57.056Z,76.22
2017-10-30T09:18:27.099Z,75.47
2017-10-30T09:20:56.300Z,76.12
2017-10-30T09:23:25.591Z,75.51
2017-10-30T09:25:54.768Z,74.43
2017-10-30T09:28:24.770Z,74.91
2017-10-30T09:30:53.940Z,75.29
2017-10-30T09:33:23.131Z,75.02
2017-10-30T09:35:52.320Z,76.33
2017-10-30T09:38:21.600Z,74.30
2017-10-30T09:40:51.529Z,74.75
2017-10-30T09:43:20.814Z,73.59
2017-10-30T09:45:49.989Z,74.25
2017-10-30T09:48:19.965Z,74.17
2017-10-30T09:50:49.282Z,74.99
2017-10-30T09:53:19.487Z,74.84
2017-10-30T09:55:48.692Z,74.18
2017-10-30T09:58:17.880Z,74.39
2017-10-30T10:00:48.940Z,72.80
2017-10-30T10:03:18.896Z,73.84
2017-10-30T10:05:48.115Z,74.37
2017-10-30T10:08:17.389Z,73.23
2017-10-30T10:10:46.675Z,72.55
2017-10-30T10:13:15.863Z,72.25
2017-10-30T10:15:45.180Z,72.45
2017-10-30T10:18:14.395Z,72.48
2017-10-30T10:20:43.598Z,71.95
2017-10-30T10:23:12.820Z,71.90
2017-10-30T10:25:42.042Z,72.14
2017-10-30T10:28:12.036Z,71.88
2017-10-30T10:30:41.267Z,72.49
2017-10-30T10:33:11.274Z,73.14
2017-10-30T10:35:41.227Z,73.52
2017-10-30T10:38:11.279Z,72.25
2017-10-30T10:40:40.489Z,72.21
2017-10-30T10:43:09.700Z,72.88
2017-10-30T10:45:39.676Z,74.13
2017-10-30T10:48:09.097Z,74.35
2017-10-30T10:50:38.302Z,72.72
2017-10-30T10:53:07.503Z,72.12
2017-10-30T10:55:37.576Z,71.75
2017-10-30T10:58:06.905Z,70.55
2017-10-30T11:00:36.139Z,71.18
2017-10-30T11:03:06.120Z,70.06
2017-10-30T11:05:36.832Z,70.33
2017-10-30T11:08:06.073Z,69.79
2017-10-30T11:10:35.296Z,69.30
2017-10-30T11:13:04.533Z,70.14
2017-10-30T11:15:33.765Z,70.30
2017-10-30T11:18:03.752Z,68.81
2017-10-30T11:20:32.971Z,68.93
2017-10-30T11:23:02.963Z,68.73
2017-10-30T11:25:32.208Z,69.56
2017-10-30T11:28:02.179Z,69.29
2017-10-30T11:30:31.459Z,67.81
2017-10-30T11:33:00.754Z,68.71
2017-10-30T11:35:29.972Z,67.98
2017-10-30T11:37:59.188Z,68.24
2017-10-30T11:40:30.278Z,67.86
2017-10-30T11:43:00.239Z,69.06
2017-10-30T11:45:30.999Z,68.49
2017-10-30T11:48:00.995Z,67.46
2017-10-30T11:50:30.198Z,67.31
2017-10-30T11:53:00.215Z,68.27
2017-10-30T11:55:30.218Z,67.98
2017-10-30T11:57:59.447Z,66.76
2017-10-30T12:00:29.408Z,66.92
2017-10-30T12:02:58.616Z,66.75
2017-10-30T12:05:27.821Z,67.26
2017-10-30T12:07:57.051Z,66.08
2017-10-30T12:10:27.027Z,67.06
2017-10-30T12:12:56.312Z,66.42
2017-10-30T12:15:25.536Z,67.48
2017-10-30T12:17:56.481Z,67.01
2017-10-30T12:20:26.564Z,67.58
2017-10-30T12:22:55.771Z,67.05
2017-10-30T12:25:25.099Z,67.57
2017-10-30T12:27:55.068Z,66.13
2017-10-30T12:30:24.299Z,67.40
2017-10-30T12:32:55.011Z,68.11
2017-10-30T12:35:24.239Z,68.07
2017-10-30T12:37:53.461Z,67.57
2017-10-30T12:40:23.509Z,67.06
2017-10-30T12:42:52.804Z,66.08
2017-10-30T12:45:22.147Z,66.67
2017-10-30T12:47:51.327Z,67.17
2017-10-30T12:50:20.512Z,66.37
2017-10-30T12:52:49.717Z,65.59
2017-10-30T12:55:18.945Z,65.29
2017-10-30T12:57:48.183Z,65.34
2017-10-30T13:00:17.371Z,65.92
2017-10-30T13:02:46.599Z,66.26
2017-10-30T13:05:15.807Z,65.30
2017-10-30T13:07:45.058Z,64.87
2017-10-30T13:10:15.015Z,63.75
2017-10-30T13:12:44.235Z,65.08
2017-10-30T13:15:13.484Z,69.89
2017-10-30T13:17:42.705Z,71.51
2017-10-30T13:20:11.915Z,70.79
2017-10-30T13:22:41.323Z,72.80
2017-10-30T13:25:10.527Z,72.64
2017-10-30T13:27:40.543Z,74.52
2017-10-30T13:30:11.267Z,74.99
2017-10-30T13:32:41.994Z,76.03
2017-10-30T13:35:11.241Z,78.33
2017-10-30T13:37:40.436Z,78.73
2017-10-30T13:40:10.419Z,78.95
2017-10-30T13:42:41.119Z,78.36
2017-10-30T13:45:10.356Z,77.60
2017-10-30T13:47:39.562Z,77.66
2017-10-30T13:50:09.571Z,77.57
2017-10-30T13:52:39.667Z,75.90
2017-10-30T13:55:08.904Z,77.33
2017-10-30T13:57:38.929Z,78.38
2017-10-30T14:00:08.122Z,78.17
2017-10-30T14:02:37.353Z,75.57
2017-10-30T14:05:06.574Z,75.71
2017-10-30T14:07:35.792Z,75.65
2017-10-30T14:10:05.788Z,76.57
2017-10-30T14:12:35.152Z,76.81
2017-10-30T14:15:04.388Z,76.03
2017-10-30T14:17:33.915Z,76.38
2017-10-30T14:20:04.007Z,75.33
2017-10-30T14:22:33.259Z,75.33
2017-10-30T14:25:02.483Z,75.45
2017-10-30T14:27:31.695Z,75.73
2017-10-30T14:30:00.928Z,75.79
2017-10-30T14:32:30.103Z,74.74
2017-10-30T14:34:59.352Z,75.49
2017-10-30T14:37:28.555Z,75.65
2017-10-30T14:39:57.791Z,73.67
2017-10-30T14:42:27.020Z,74.52
2017-10-30T14:44:56.301Z,74.66
2017-10-30T14:47:25.515Z,74.88
2017-10-30T14:49:55.520Z,74.87
2017-10-30T14:52:24.734Z,74.67
2017-10-30T14:54:54.716Z,74.75
2017-10-30T14:57:23.983Z,74.10
2017-10-30T14:59:53.264Z,75.64
2017-10-30T15:02:23.267Z,75.91
2017-10-30T15:04:52.472Z,74.89
2017-10-30T15:07:21.790Z,75.67
2017-10-30T15:09:51.049Z,75.74
2017-10-30T15:12:21.084Z,75.94
2017-10-30T15:14:50.316Z,76.98
2017-10-30T15:17:19.544Z,76.66
2017-10-30T15:19:49.752Z,77.21
2017-10-30T15:22:19.115Z,73.62
2017-10-30T15:24:48.324Z,72.86
2017-10-30T15:27:17.577Z,73.16
2017-10-30T15:29:46.826Z,73.39
2017-10-30T15:32:16.063Z,69.13
2017-10-30T15:34:45.424Z,70.78
2017-10-30T15:37:14.662Z,69.95
2017-10-30T15:39:43.853Z,70.80
2017-10-30T15:42:13.071Z,67.65
2017-10-30T15:44:43.169Z,67.55
2017-10-30T15:47:12.369Z,67.97
2017-10-30T15:49:41.600Z,69.22
2017-10-30T15:52:11.560Z,67.88
2017-10-30T15:54:40.948Z,68.91
2017-10-30T15:57:10.186Z,68.82
2017-10-30T15:59:39.432Z,68.62
2017-10-30T16:02:08.641Z,68.62
2017-10-30T16:04:37.977Z,68.73
2017-10-30T16:07:07.216Z,69.14
2017-10-30T16:09:36.467Z,69.00
2017-10-30T16:12:07.200Z,69.55
2017-10-30T16:14:36.419Z,69.22
2017-10-30T16:17:06.402Z,68.84
2017-10-30T16:19:35.610Z,68.62
2017-10-30T16:22:04.835Z,68.71
2017-10-30T16:24:34.812Z,68.59
2017-10-30T16:27:04.041Z,68.61
2017-10-30T16:29:34.016Z,69.33
2017-10-30T16:32:03.249Z,69.40
2017-10-30T16:34:32.533Z,68.66
2017-10-30T16:37:01.771Z,69.56
2017-10-30T16:39:31.080Z,69.62
2017-10-30T16:42:01.039Z,69.86
2017-10-30T16:44:30.267Z,69.55
2017-10-30T16:46:59.596Z,71.71
2017-10-30T16:49:28.832Z,70.03
2017-10-30T16:51:58.056Z,70.32
2017-10-30T16:54:27.299Z,70.85
2017-10-30T16:56:56.884Z,70.70
2017-10-30T16:59:26.115Z,70.94
2017-10-30T17:01:55.334Z,71.36
2017-10-30T17:04:24.567Z,71.33
2017-10-30T17:06:53.797Z,71.73
2017-10-30T17:09:23.021Z,71.95
2017-10-30T17:11:52.253Z,72.48
2017-10-30T17:14:21.480Z,72.36
2017-10-30T17:16:51.426Z,72.54
2017-10-30T17:19:20.661Z,73.51
2017-10-30T17:21:49.923Z,74.52
2017-10-30T17:24:19.099Z,74.85
2017-10-30T17:26:48.328Z,75.20
2017-10-30T17:29:17.548Z,75.48
2017-10-30T17:31:46.845Z,75.43
2017-10-30T17:34:16.028Z,75.96
2017-10-30T17:36:45.275Z,76.29
2017-10-30T17:39:15.255Z,76.65
2017-10-30T17:41:45.436Z,76.65
2017-10-30T17:44:14.854Z,76.77
2017-10-30T17:46:44.124Z,76.97
2017-10-30T17:49:13.332Z,77.33
2017-10-30T17:51:42.644Z,77.39
2017-10-30T17:54:11.856Z,77.85
2017-10-30T17:56:41.131Z,78.20
2017-10-30T17:59:10.432Z,78.44
2017-10-30T18:01:39.680Z,78.51
2017-10-30T18:04:09.182Z,78.61
2017-10-30T18:06:39.331Z,78.89
2017-10-30T18:09:08.589Z,79.24
2017-10-30T18:11:37.825Z,78.99
2017-10-30T18:14:07.760Z,79.61
2017-10-30T18:16:37.309Z,79.73
2017-10-30T18:19:06.525Z,79.55
2017-10-30T18:21:36.507Z,79.56
2017-10-30T18:24:05.747Z,79.72
2017-10-30T18:26:35.808Z,80.11
2017-10-30T18:29:05.153Z,79.82
2017-10-30T18:31:35.136Z,79.84
2017-10-30T18:34:04.359Z,79.74
2017-10-30T18:36:35.103Z,79.78
2017-10-30T18:39:05.153Z,79.76
2017-10-30T18:41:35.240Z,79.79
2017-10-30T18:44:04.421Z,79.59
2017-10-30T18:46:33.672Z,79.43
2017-10-30T18:49:02.897Z,79.36
2017-10-30T18:51:32.166Z,79.26
2017-10-30T18:54:01.437Z,78.94
2017-10-30T18:56:30.688Z,78.85
2017-10-30T18:58:59.952Z,78.96
2017-10-30T19:01:29.169Z,79.36
2017-10-30T19:03:58.561Z,79.72
2017-10-30T19:06:27.779Z,79.67
2017-10-30T19:08:57.016Z,79.44
2017-10-30T19:11:26.989Z,79.83
2017-10-30T19:13:56.234Z,79.32
2017-10-30T19:16:27.142Z,79.00
2017-10-30T19:18:56.392Z,79.45
2017-10-30T19:21:25.599Z,79.12
2017-10-30T19:23:54.885Z,79.59
2017-10-30T19:26:24.083Z,79.52
2017-10-30T19:28:53.333Z,79.77
2017-10-30T19:31:22.598Z,79.86
2017-10-30T19:33:51.782Z,79.96
2017-10-30T19:36:21.130Z,80.30
2017-10-30T19:38:50.316Z,80.30
2017-10-30T19:41:19.528Z,79.99
2017-10-30T19:46:24.166Z,79.83
2017-10-30T19:48:53.426Z,79.99
2017-10-30T19:51:22.673Z,80.55
2017-10-30T19:53:51.918Z,80.56
2017-10-30T19:56:21.228Z,80.61
2017-10-30T19:58:50.420Z,81.17
2017-10-30T20:01:19.645Z,81.28
2017-10-30T20:03:48.928Z,81.42
2017-10-30T20:19:42.647Z,81.49
2017-10-30T20:22:12.904Z,81.53
2017-10-30T20:24:42.145Z,81.80
2017-10-30T20:27:12.116Z,82.16
2017-10-30T20:29:41.344Z,82.12
2017-10-30T20:32:10.579Z,82.73
2017-10-30T20:34:40.767Z,82.92
2017-10-30T20:37:09.979Z,82.98
2017-10-30T20:39:40.004Z,82.93
2017-10-30T20:42:10.007Z,83.20
2017-10-30T20:44:40.719Z,82.80
2017-10-30T20:47:09.928Z,82.91
2017-10-30T20:49:39.287Z,82.70
2017-10-30T20:52:08.517Z,82.21
2017-10-30T20:54:37.799Z,82.67
2017-10-30T20:57:07.232Z,82.73
2017-10-30T20:59:37.223Z,82.47
2017-10-30T21:02:06.546Z,82.35
2017-10-30T21:04:35.800Z,82.29
2017-10-30T21:07:05.114Z,82.55
2017-10-30T21:09:34.337Z,83.27
2017-10-30T21:12:04.459Z,83.44
2017-10-30T21:14:33.709Z,83.61
2017-10-30T21:17:02.966Z,83.75
2017-10-30T21:19:33.679Z,83.84
2017-10-30T21:22:02.980Z,83.96
2017-10-30T21:24:32.351Z,83.97
2017-10-30T21:27:01.575Z,83.71
2017-10-30T21:29:30.982Z,83.84
2017-10-30T21:32:00.216Z,83.86
2017-10-30T21:34:30.302Z,83.96
2017-10-30T21:37:01.016Z,83.88
2017-10-30T21:39:30.266Z,83.65
2017-10-30T21:42:00.228Z,83.83
2017-10-30T21:44:29.464Z,83.84
2017-10-30T21:46:59.450Z,84.35
2017-10-30T21:49:28.685Z,84.11
2017-10-30T21:51:58.684Z,84.28
2017-10-30T21:54:28.687Z,84.54
2017-10-30T21:56:57.974Z,84.38
2017-10-30T21:59:27.186Z,84.52
2017-10-30T22:01:56.435Z,84.36
2017-10-30T22:04:25.666Z,84.62
2017-10-30T22:06:55.040Z,85.07
2017-10-30T22:09:24.244Z,85.33
2017-10-30T22:11:53.511Z,85.27
2017-10-30T22:14:22.730Z,85.43
2017-10-30T22:16:51.929Z,85.42
2017-10-30T22:19:21.214Z,85.20
2017-10-30T22:21:50.434Z,85.30
2017-10-30T22:24:19.643Z,85.22
2017-10-30T22:26:48.904Z,85.40
2017-10-30T22:29:19.076Z,85.50
2017-10-30T22:31:48.288Z,85.76
2017-10-30T22:34:17.562Z,86.00
2017-10-30T22:36:46.837Z,86.19
2017-10-30T22:39:16.063Z,85.97
2017-10-30T22:41:45.316Z,86.30
2017-10-30T22:44:15.281Z,86.63
2017-10-30T22:46:44.493Z,86.85
2017-10-30T22:49:15.241Z,86.90
2017-10-30T22:51:45.220Z,86.66
2017-10-30T22:54:14.450Z,86.67
2017-10-30T22:56:44.675Z,86.74
2017-10-30T22:59:14.656Z,86.69
2017-10-30T23:01:43.869Z,86.50
2017-10-30T23:04:14.775Z,86.13
2017-10-30T23:06:44.048Z,85.98
2017-10-30T23:09:13.324Z,85.83
2017-10-30T23:11:42.536Z,85.91
2017-10-30T23:14:12.507Z,85.90
2017-10-30T23:16:41.732Z,85.78
2017-10-30T23:19:12.157Z,85.31
2017-10-30T23:21:42.168Z,85.21
2017-10-30T23:24:11.549Z,84.54
2017-10-30T23:26:40.756Z,84.62
2017-10-30T23:29:09.993Z,84.42
2017-10-30T23:31:39.335Z,84.60
2017-10-30T23:34:08.679Z,84.58
2017-10-30T23:36:38.668Z,84.75
2017-10-30T23:39:07.888Z,84.37
2017-10-30T23:41:37.845Z,84.57
2017-10-30T23:44:07.275Z,84.49
2017-10-30T23:46:36.475Z,84.09
2017-10-30T23:49:05.707Z,84.04
2017-10-30T23:51:35.715Z,83.88
2017-10-30T23:54:05.149Z,84.00
2017-10-30T23:56:34.379Z,83.57
2017-10-30T23:59:03.653Z,83.76
